Time,TemperatureF,DewpointF,PressureIn,WindDirection,WindDirectionDegrees,WindSpeedMPH,WindSpeedGustMPH,Humidity,HourlyPrecipIn,Conditions,Clouds,dailyrainin,SoftwareType,DateUTC
2013-02-10 00:00:00,46.5,34.6,30.30,South,173,0.0,0.0,63,0.00,,---,0.00,VWS V14.00,2013-02-10 06:00:00,
2013-02-10 00:05:00,46.7,34.0,30.30,South,173,0.0,1.0,61,0.00,,---,0.00,VWS V14.00,2013-02-10 06:05:00,
2013-02-10 00:10:00,47.1,34.4,30.30,South,173,0.0,1.0,61,0.00,,---,0.00,VWS V14.00,2013-02-10 06:10:00,
2013-02-10 00:15:00,47.1,33.5,30.31,WSW,237,0.0,2.0,59,0.00,,---,0.00,VWS V14.00,2013-02-10 06:15:00,
2013-02-10 00:20:00,47.0,35.1,30.32,WSW,237,0.0,2.0,63,0.00,,---,0.00,VWS V14.00,2013-02-10 06:20:00,
2013-02-10 00:25:00,46.2,34.3,30.32,WSW,237,0.0,2.0,63,0.00,,---,0.00,VWS V14.00,2013-02-10 06:25:00,
2013-02-10 00:30:00,46.5,35.4,30.32,SSW,202,4.0,6.0,65,0.00,,---,0.00,VWS V14.00,2013-02-10 06:30:00,
2013-02-10 00:35:00,48.7,34.2,30.31,South,190,9.0,10.0,57,0.00,,---,0.00,VWS V14.00,2013-02-10 06:35:00,
2013-02-10 00:40:00,50.1,34.6,30.29,South,184,5.0,10.0,55,0.00,,---,0.00,VWS V14.00,2013-02-10 06:40:00,
2013-02-10 00:45:00,50.8,34.3,30.29,SSE,158,5.0,12.0,53,0.00,,---,0.00,VWS V14.00,2013-02-10 06:45:00,
2013-02-10 00:50:00,51.0,34.0,30.29,SSE,167,5.0,12.0,52,0.00,,---,0.00,VWS V14.00,2013-02-10 06:50:00,
2013-02-10 00:55:00,51.0,33.5,30.28,SSW,196,3.0,14.0,51,0.00,,---,0.00,VWS V14.00,2013-02-10 06:55:00,
2013-02-10 01:00:00,51.1,33.6,30.29,SE,137,0.0,7.0,51,0.00,,---,0.00,VWS V14.00,2013-02-10 07:00:00,
2013-02-10 01:05:00,51.1,34.1,30.30,SSW,193,5.0,12.0,52,0.00,,---,0.00,VWS V14.00,2013-02-10 07:05:00,
2013-02-10 01:10:00,51.2,33.7,30.30,South,178,5.0,12.0,51,0.00,,---,0.00,VWS V14.00,2013-02-10 07:10:00,
2013-02-10 01:15:00,51.1,33.1,30.30,South,178,5.0,12.0,50,0.00,,---,0.00,VWS V14.00,2013-02-10 07:15:00,
2013-02-10 01:20:00,51.2,33.7,30.30,South,188,6.0,12.0,51,0.00,,---,0.00,VWS V14.00,2013-02-10 07:20:00,
2013-02-10 01:25:00,51.2,33.7,30.29,South,186,3.0,12.0,51,0.00,,---,0.00,VWS V14.00,2013-02-10 07:25:00,
2013-02-10 01:30:00,51.2,33.7,30.29,SSW,198,4.0,9.0,51,0.00,,---,0.00,VWS V14.00,2013-02-10 07:30:00,
2013-02-10 01:35:00,51.2,33.7,30.30,South,175,6.0,9.0,51,0.00,,---,0.00,VWS V14.00,2013-02-10 07:35:00,
2013-02-10 01:40:00,51.3,34.3,30.30,South,188,4.0,9.0,52,0.00,,---,0.00,VWS V14.00,2013-02-10 07:40:00,
2013-02-10 01:44:00,51.4,33.9,30.30,South,175,4.0,9.0,51,0.00,,---,0.00,VWS V14.00,2013-02-10 07:44:00,
2013-02-10 01:49:00,51.3,33.8,30.30,SSE,161,1.0,9.0,51,0.00,,---,0.00,VWS V14.00,2013-02-10 07:49:00,
2013-02-10 01:54:00,51.2,34.2,30.30,South,186,1.0,9.0,52,0.00,,---,0.00,VWS V14.00,2013-02-10 07:54:00,
2013-02-10 01:59:00,51.2,33.7,30.30,South,182,5.0,6.0,51,0.00,,---,0.00,VWS V14.00,2013-02-10 07:59:00,
2013-02-10 02:04:00,51.3,33.8,30.30,South,184,4.0,9.0,51,0.00,,---,0.00,VWS V14.00,2013-02-10 08:04:00,
2013-02-10 02:09:00,51.4,33.4,30.30,South,171,4.0,9.0,50,0.00,,---,0.00,VWS V14.00,2013-02-10 08:09:00,
2013-02-10 02:14:00,51.6,33.6,30.30,SSW,198,5.0,9.0,50,0.00,,---,0.00,VWS V14.00,2013-02-10 08:14:00,
2013-02-10 02:19:00,51.6,33.6,30.29,South,178,4.0,9.0,50,0.00,,---,0.00,VWS V14.00,2013-02-10 08:19:00,
2013-02-10 02:24:00,51.6,33.6,30.30,South,170,2.0,9.0,50,0.00,,---,0.00,VWS V14.00,2013-02-10 08:24:00,
2013-02-10 02:29:00,51.6,33.6,30.30,SSW,198,5.0,10.0,50,0.00,,---,0.00,VWS V14.00,2013-02-10 08:29:00,
2013-02-10 02:34:00,51.5,33.5,30.30,South,169,4.0,10.0,50,0.00,,---,0.00,VWS V14.00,2013-02-10 08:34:00,
2013-02-10 02:39:00,51.7,34.2,30.30,South,186,3.0,12.0,51,0.00,,---,0.00,VWS V14.00,2013-02-10 08:39:00,
2013-02-10 02:44:00,51.7,33.7,30.30,SSW,198,3.0,12.0,50,0.00,,---,0.00,VWS V14.00,2013-02-10 08:44:00,
2013-02-10 02:49:00,51.6,34.1,30.30,SSW,207,3.0,12.0,51,0.00,,---,0.00,VWS V14.00,2013-02-10 08:49:00,
2013-02-10 02:54:00,51.6,34.1,30.29,South,190,5.0,12.0,51,0.00,,---,0.00,VWS V14.00,2013-02-10 08:54:00,
2013-02-10 02:59:00,51.8,34.3,30.29,SSW,192,6.0,7.0,51,0.00,,---,0.00,VWS V14.00,2013-02-10 08:59:00,
2013-02-10 03:04:00,51.8,34.3,30.29,South,179,5.0,9.0,51,0.00,,---,0.00,VWS V14.00,2013-02-10 09:04:00,
2013-02-10 03:09:00,51.7,34.2,30.28,SSW,192,4.0,11.0,51,0.00,,---,0.00,VWS V14.00,2013-02-10 09:09:00,
2013-02-10 03:14:00,51.7,34.2,30.28,South,185,5.0,11.0,51,0.00,,---,0.00,VWS V14.00,2013-02-10 09:14:00,
2013-02-10 03:19:00,51.7,34.2,30.28,South,171,5.0,11.0,51,0.00,,---,0.00,VWS V14.00,2013-02-10 09:19:00,
2013-02-10 03:24:00,51.7,34.2,30.28,South,178,10.0,11.0,51,0.00,,---,0.00,VWS V14.00,2013-02-10 09:24:00,
2013-02-10 03:29:00,51.7,34.7,30.27,SSE,165,1.0,9.0,52,0.00,,---,0.00,VWS V14.00,2013-02-10 09:29:00,
2013-02-10 03:34:00,51.7,34.2,30.27,SSW,195,6.0,9.0,51,0.00,,---,0.00,VWS V14.00,2013-02-10 09:34:00,
2013-02-10 03:39:00,51.8,34.3,30.27,SSW,194,7.0,13.0,51,0.00,,---,0.00,VWS V14.00,2013-02-10 09:39:00,
2013-02-10 03:44:00,51.8,34.3,30.27,South,175,5.0,13.0,51,0.00,,---,0.00,VWS V14.00,2013-02-10 09:44:00,
2013-02-10 03:49:00,51.7,34.7,30.27,South,176,9.0,13.0,52,0.00,,---,0.00,VWS V14.00,2013-02-10 09:49:00,
2013-02-10 03:54:00,51.8,34.8,30.27,South,180,6.0,13.0,52,0.00,,---,0.00,VWS V14.00,2013-02-10 09:54:00,
2013-02-10 03:59:00,51.8,34.8,30.27,SSE,164,9.0,11.0,52,0.00,,---,0.00,VWS V14.00,2013-02-10 09:59:00,
2013-02-10 04:04:00,51.9,34.8,30.27,SSW,197,8.0,11.0,52,0.00,,---,0.00,VWS V14.00,2013-02-10 10:04:00,
2013-02-10 04:09:00,51.9,34.8,30.26,SSW,202,5.0,12.0,52,0.00,,---,0.00,VWS V14.00,2013-02-10 10:09:00,
2013-02-10 04:14:00,51.9,34.8,30.26,South,180,6.0,12.0,52,0.00,,---,0.00,VWS V14.00,2013-02-10 10:14:00,
2013-02-10 04:19:00,51.8,34.8,30.26,SSE,155,4.0,12.0,52,0.00,,---,0.00,VWS V14.00,2013-02-10 10:19:00,
2013-02-10 04:24:00,51.8,34.8,30.26,SE,129,1.0,12.0,52,0.00,,---,0.00,VWS V14.00,2013-02-10 10:24:00,
2013-02-10 04:29:00,51.7,34.7,30.26,South,185,5.0,7.0,52,0.00,,---,0.00,VWS V14.00,2013-02-10 10:29:00,
2013-02-10 04:34:00,51.5,35.0,30.25,South,178,0.0,7.0,53,0.00,,---,0.00,VWS V14.00,2013-02-10 10:34:00,
2013-02-10 04:39:00,51.5,34.5,30.25,SSE,163,10.0,12.0,52,0.00,,---,0.00,VWS V14.00,2013-02-10 10:39:00,
2013-02-10 04:44:00,51.4,34.9,30.25,South,182,6.0,13.0,53,0.00,,---,0.00,VWS V14.00,2013-02-10 10:44:00,
2013-02-10 04:49:00,51.5,34.5,30.25,SSW,192,8.0,13.0,52,0.00,,---,0.00,VWS V14.00,2013-02-10 10:49:00,
2013-02-10 04:54:00,51.5,34.5,30.24,SSE,157,9.0,13.0,52,0.00,,---,0.00,VWS V14.00,2013-02-10 10:54:00,
2013-02-10 04:59:00,51.5,34.0,30.24,SSW,196,7.0,8.0,51,0.00,,---,0.00,VWS V14.00,2013-02-10 10:59:00,
2013-02-10 05:04:00,51.6,34.1,30.25,SSE,168,7.0,10.0,51,0.00,,---,0.00,VWS V14.00,2013-02-10 11:04:00,
2013-02-10 05:09:00,51.9,34.4,30.24,SSE,163,1.0,10.0,51,0.00,,---,0.00,VWS V14.00,2013-02-10 11:09:00,
2013-02-10 05:14:00,52.0,34.0,30.24,SSE,168,6.0,16.0,50,0.00,,---,0.00,VWS V14.00,2013-02-10 11:14:00,
2013-02-10 05:19:00,52.1,34.0,30.25,South,179,6.0,16.0,50,0.00,,---,0.00,VWS V14.00,2013-02-10 11:19:00,
2013-02-10 05:24:00,52.1,34.0,30.24,South,178,6.0,16.0,50,0.00,,---,0.00,VWS V14.00,2013-02-10 11:24:00,
2013-02-10 05:29:00,52.0,34.0,30.24,South,169,4.0,4.0,50,0.00,,---,0.00,VWS V14.00,2013-02-10 11:29:00,
2013-02-10 05:34:00,51.8,33.8,30.23,South,184,5.0,10.0,50,0.00,,---,0.00,VWS V14.00,2013-02-10 11:34:00,
2013-02-10 05:39:00,51.7,33.7,30.24,SSW,205,3.0,10.0,50,0.00,,---,0.00,VWS V14.00,2013-02-10 11:39:00,
2013-02-10 05:44:00,51.3,33.8,30.25,South,170,1.0,10.0,51,0.00,,---,0.00,VWS V14.00,2013-02-10 11:44:00,
2013-02-10 05:49:00,51.1,33.6,30.25,South,184,1.0,10.0,51,0.00,,---,0.00,VWS V14.00,2013-02-10 11:49:00,
2013-02-10 05:54:00,51.0,34.0,30.25,South,178,4.0,10.0,52,0.00,,---,0.00,VWS V14.00,2013-02-10 11:54:00,
2013-02-10 05:59:00,51.1,33.6,30.25,South,190,2.0,5.0,51,0.00,,---,0.00,VWS V14.00,2013-02-10 11:59:00,
2013-02-10 06:04:00,51.3,34.3,30.24,South,186,6.0,12.0,52,0.00,,---,0.00,VWS V14.00,2013-02-10 12:04:00,
2013-02-10 06:09:00,51.3,33.8,30.23,South,180,10.0,12.0,51,0.00,,---,0.00,VWS V14.00,2013-02-10 12:09:00,
2013-02-10 06:14:00,51.5,33.5,30.23,South,178,7.0,14.0,50,0.00,,---,0.00,VWS V14.00,2013-02-10 12:14:00,
2013-02-10 06:19:00,51.6,33.6,30.22,SSE,165,8.0,14.0,50,0.00,,---,0.00,VWS V14.00,2013-02-10 12:19:00,
2013-02-10 06:24:00,51.6,33.6,30.22,South,175,8.0,14.0,50,0.00,,---,0.00,VWS V14.00,2013-02-10 12:24:00,
2013-02-10 06:29:00,51.5,34.5,30.22,South,187,7.0,7.0,52,0.00,,---,0.00,VWS V14.00,2013-02-10 12:29:00,
2013-02-10 06:34:00,51.4,33.9,30.22,South,187,4.0,13.0,51,0.00,,---,0.00,VWS V14.00,2013-02-10 12:34:00,
2013-02-10 06:39:00,51.3,34.3,30.23,South,190,3.0,13.0,52,0.00,,---,0.00,VWS V14.00,2013-02-10 12:39:00,
2013-02-10 06:44:00,51.3,34.8,30.23,East,94,4.0,13.0,53,0.00,,---,0.00,VWS V14.00,2013-02-10 12:44:00,
2013-02-10 06:49:00,51.3,34.3,30.23,SSW,196,4.0,13.0,52,0.00,,---,0.00,VWS V14.00,2013-02-10 12:49:00,
2013-02-10 06:54:00,51.3,34.3,30.24,SSW,193,5.0,13.0,52,0.00,,---,0.00,VWS V14.00,2013-02-10 12:54:00,
2013-02-10 06:59:00,51.3,34.8,30.24,ESE,115,9.0,11.0,53,0.00,,---,0.00,VWS V14.00,2013-02-10 12:59:00,
2013-02-10 07:04:00,51.4,34.4,30.23,South,169,9.0,11.0,52,0.00,,---,0.00,VWS V14.00,2013-02-10 13:04:00,
2013-02-10 07:09:00,51.5,34.5,30.24,SSE,158,1.0,11.0,52,0.00,,---,0.00,VWS V14.00,2013-02-10 13:09:00,
2013-02-10 07:14:00,51.4,34.4,30.24,SSE,155,0.0,12.0,52,0.00,,---,0.00,VWS V14.00,2013-02-10 13:14:00,
2013-02-10 07:19:00,51.4,34.4,30.23,South,169,9.0,12.0,52,0.00,,---,0.00,VWS V14.00,2013-02-10 13:19:00,
2013-02-10 07:24:00,51.4,34.9,30.23,South,173,8.0,12.0,53,0.00,,---,0.00,VWS V14.00,2013-02-10 13:24:00,
2013-02-10 07:29:00,51.6,34.1,30.23,SSE,155,2.0,7.0,51,0.00,,---,0.00,VWS V14.00,2013-02-10 13:29:00,
2013-02-10 07:34:00,51.7,34.7,30.23,SSE,154,6.0,9.0,52,0.00,,---,0.00,VWS V14.00,2013-02-10 13:34:00,
2013-02-10 07:39:00,51.9,34.4,30.23,SSW,199,8.0,14.0,51,0.00,,---,0.00,VWS V14.00,2013-02-10 13:39:00,
2013-02-10 07:44:00,52.3,34.7,30.23,SSW,192,3.0,14.0,51,0.00,,---,0.00,VWS V14.00,2013-02-10 13:44:00,
2013-02-10 07:49:00,52.5,33.9,30.23,ESE,114,4.0,14.0,49,0.00,,---,0.00,VWS V14.00,2013-02-10 13:49:00,
2013-02-10 07:54:00,52.5,33.9,30.23,South,188,8.0,19.0,49,0.00,,---,0.00,VWS V14.00,2013-02-10 13:54:00,
2013-02-10 07:59:00,52.4,33.8,30.23,SSW,208,8.0,11.0,49,0.00,,---,0.00,VWS V14.00,2013-02-10 13:59:00,
2013-02-10 08:04:00,52.5,33.9,30.23,SSE,158,11.0,15.0,49,0.00,,---,0.00,VWS V14.00,2013-02-10 14:04:00,
2013-02-10 08:09:00,52.8,34.2,30.22,SW,225,3.0,15.0,49,0.00,,---,0.00,VWS V14.00,2013-02-10 14:09:00,
2013-02-10 08:14:00,53.0,33.8,30.22,South,173,10.0,18.0,48,0.00,,---,0.00,VWS V14.00,2013-02-10 14:14:00,
2013-02-10 08:19:00,53.6,33.9,30.23,SSW,193,9.0,18.0,47,0.00,,---,0.00,VWS V14.00,2013-02-10 14:19:00,
2013-02-10 08:24:00,54.0,34.8,30.22,SSW,201,12.0,20.0,48,0.00,,---,0.00,VWS V14.00,2013-02-10 14:24:00,
2013-02-10 08:29:00,54.1,34.3,30.22,SSW,208,11.0,12.0,47,0.00,,---,0.00,VWS V14.00,2013-02-10 14:29:00,
2013-02-10 08:34:00,54.0,34.2,30.22,SSE,164,11.0,21.0,47,0.00,,---,0.00,VWS V14.00,2013-02-10 14:34:00,
2013-02-10 08:39:00,54.2,34.4,30.22,SSE,165,7.0,21.0,47,0.00,,---,0.00,VWS V14.00,2013-02-10 14:39:00,
2013-02-10 08:44:00,54.7,35.4,30.21,South,176,6.0,21.0,48,0.00,,---,0.00,VWS V14.00,2013-02-10 14:44:00,
2013-02-10 08:49:00,54.7,34.9,30.22,SSW,204,9.0,21.0,47,0.00,,---,0.00,VWS V14.00,2013-02-10 14:49:00,
2013-02-10 08:54:00,54.8,35.5,30.21,South,171,11.0,21.0,48,0.00,,---,0.00,VWS V14.00,2013-02-10 14:54:00,
2013-02-10 08:59:00,54.8,35.5,30.20,SSW,202,11.0,11.0,48,0.00,,---,0.00,VWS V14.00,2013-02-10 14:59:00,
2013-02-10 09:04:00,54.7,35.9,30.20,South,170,9.0,15.0,49,0.00,,---,0.00,VWS V14.00,2013-02-10 15:04:00,
2013-02-10 09:09:00,54.9,35.6,30.20,SSW,198,9.0,21.0,48,0.00,,---,0.00,VWS V14.00,2013-02-10 15:09:00,
2013-02-10 09:14:00,55.1,36.8,30.19,South,187,10.0,21.0,50,0.00,,---,0.00,VWS V14.00,2013-02-10 15:14:00,
2013-02-10 09:19:00,55.3,37.0,30.20,SSE,150,9.0,21.0,50,0.00,,---,0.00,VWS V14.00,2013-02-10 15:19:00,
2013-02-10 09:24:00,55.0,36.2,30.19,South,174,10.0,21.0,49,0.00,,---,0.00,VWS V14.00,2013-02-10 15:24:00,
2013-02-10 09:29:00,55.0,37.2,30.19,SSW,197,12.0,13.0,51,0.00,,---,0.00,VWS V14.00,2013-02-10 15:29:00,
2013-02-10 09:34:00,55.1,37.8,30.19,SSE,164,11.0,18.0,52,0.00,,---,0.00,VWS V14.00,2013-02-10 15:34:00,
2013-02-10 09:39:00,55.5,38.7,30.20,SE,145,13.0,26.0,53,0.00,,---,0.00,VWS V14.00,2013-02-10 15:39:00,
2013-02-10 09:44:00,55.7,38.4,30.20,SSW,207,9.0,26.0,52,0.00,,---,0.00,VWS V14.00,2013-02-10 15:44:00,
2013-02-10 09:49:00,55.8,38.9,30.19,South,172,8.0,26.0,53,0.00,,---,0.00,VWS V14.00,2013-02-10 15:49:00,
2013-02-10 09:54:00,55.6,38.8,30.18,SSE,163,9.0,26.0,53,0.00,,---,0.00,VWS V14.00,2013-02-10 15:54:00,
2013-02-10 09:59:00,55.7,39.3,30.18,SSW,192,7.0,21.0,54,0.00,,---,0.00,VWS V14.00,2013-02-10 15:59:00,
2013-02-10 10:04:00,55.6,39.7,30.17,South,188,12.0,21.0,55,0.00,,---,0.00,VWS V14.00,2013-02-10 16:04:00,
2013-02-10 10:09:00,55.7,39.8,30.16,South,187,6.0,21.0,55,0.00,,---,0.00,VWS V14.00,2013-02-10 16:09:00,
2013-02-10 10:14:00,56.1,40.6,30.16,SE,146,8.0,21.0,56,0.00,,---,0.00,VWS V14.00,2013-02-10 16:14:00,
2013-02-10 10:19:00,56.4,40.9,30.15,South,182,11.0,24.0,56,0.00,,---,0.00,VWS V14.00,2013-02-10 16:19:00,
2013-02-10 10:24:00,56.4,40.9,30.15,South,171,10.0,24.0,56,0.00,,---,0.00,VWS V14.00,2013-02-10 16:24:00,
2013-02-10 10:29:00,56.4,41.4,30.15,SSE,157,14.0,14.0,57,0.00,,---,0.00,VWS V14.00,2013-02-10 16:29:00,
2013-02-10 10:34:00,56.1,40.6,30.15,South,189,14.0,15.0,56,0.00,,---,0.00,VWS V14.00,2013-02-10 16:34:00,
2013-02-10 10:39:00,56.0,41.5,30.14,SSW,199,10.0,18.0,58,0.00,,---,0.00,VWS V14.00,2013-02-10 16:39:00,
2013-02-10 10:44:00,55.8,40.8,30.13,South,177,12.0,18.0,57,0.00,,---,0.00,VWS V14.00,2013-02-10 16:44:00,
2013-02-10 10:49:00,55.9,41.3,30.13,SSW,199,10.0,18.0,58,0.00,,---,0.00,VWS V14.00,2013-02-10 16:49:00,
2013-02-10 10:54:00,55.9,41.3,30.13,ESE,107,14.0,19.0,58,0.00,,---,0.00,VWS V14.00,2013-02-10 16:54:00,
2013-02-10 10:59:00,55.6,41.1,30.12,South,191,9.0,10.0,58,0.00,,---,0.00,VWS V14.00,2013-02-10 16:59:00,
2013-02-10 11:04:00,55.5,41.0,30.12,SSE,150,6.0,15.0,58,0.00,,---,0.00,VWS V14.00,2013-02-10 17:04:00,
2013-02-10 11:09:00,55.5,41.0,30.11,South,177,7.0,15.0,58,0.00,,---,0.00,VWS V14.00,2013-02-10 17:09:00,
2013-02-10 11:14:00,55.2,40.7,30.11,SSW,194,7.0,21.0,58,0.00,,---,0.00,VWS V14.00,2013-02-10 17:14:00,
2013-02-10 11:19:00,54.9,40.9,30.12,SE,144,5.0,21.0,59,0.00,,---,0.00,VWS V14.00,2013-02-10 17:19:00,
2013-02-10 11:24:00,54.5,41.3,30.11,SSE,150,6.0,21.0,61,0.00,,---,0.00,VWS V14.00,2013-02-10 17:24:00,
2013-02-10 11:29:00,53.9,41.2,30.11,South,178,8.0,9.0,62,0.00,,---,0.00,VWS V14.00,2013-02-10 17:29:00,
2013-02-10 11:34:00,53.8,40.7,30.12,SSE,166,7.0,14.0,61,0.00,,---,0.00,VWS V14.00,2013-02-10 17:34:00,
2013-02-10 11:39:00,53.9,41.6,30.11,SSE,159,6.0,14.0,63,0.00,,---,0.00,VWS V14.00,2013-02-10 17:39:00,
2013-02-10 11:44:00,53.9,41.2,30.11,SSW,213,9.0,14.0,62,0.00,,---,0.00,VWS V14.00,2013-02-10 17:44:00,
2013-02-10 11:49:00,53.9,40.3,30.11,South,175,10.0,14.0,60,0.00,,---,0.00,VWS V14.00,2013-02-10 17:49:00,
2013-02-10 11:54:00,53.7,40.6,30.11,South,187,8.0,14.0,61,0.00,,---,0.00,VWS V14.00,2013-02-10 17:54:00,
2013-02-10 11:59:00,52.8,42.2,30.11,South,179,9.0,15.0,67,0.00,,---,0.00,VWS V14.00,2013-02-10 17:59:00,
2013-02-10 12:04:00,51.8,42.3,30.11,South,185,1.0,18.0,70,0.01,,---,0.01,VWS V14.00,2013-02-10 18:04:00,
2013-02-10 12:09:00,50.9,42.6,30.11,South,175,8.0,18.0,73,0.01,,---,0.01,VWS V14.00,2013-02-10 18:09:00,
2013-02-10 12:14:00,50.3,43.0,30.11,South,183,3.0,18.0,76,0.02,,---,0.02,VWS V14.00,2013-02-10 18:14:00,
2013-02-10 12:19:00,49.8,43.6,30.10,South,177,7.0,18.0,79,0.03,,---,0.03,VWS V14.00,2013-02-10 18:19:00,
2013-02-10 12:24:00,49.8,43.6,30.09,SSE,163,7.0,19.0,79,0.03,,---,0.03,VWS V14.00,2013-02-10 18:24:00,
2013-02-10 12:29:00,49.8,43.6,30.08,SSW,194,6.0,9.0,79,0.03,,---,0.03,VWS V14.00,2013-02-10 18:29:00,
2013-02-10 12:34:00,49.9,43.7,30.07,SSW,195,7.0,10.0,79,0.03,,---,0.03,VWS V14.00,2013-02-10 18:34:00,
2013-02-10 12:39:00,50.1,43.8,30.07,SE,140,7.0,13.0,79,0.03,,---,0.03,VWS V14.00,2013-02-10 18:39:00,
2013-02-10 12:44:00,50.1,43.5,30.06,South,184,4.0,13.0,78,0.03,,---,0.03,VWS V14.00,2013-02-10 18:44:00,
2013-02-10 12:49:00,50.1,43.8,30.06,South,173,4.0,13.0,79,0.03,,---,0.03,VWS V14.00,2013-02-10 18:49:00,
2013-02-10 12:54:00,49.8,44.2,30.06,SSW,200,3.0,13.0,81,0.05,,---,0.05,VWS V14.00,2013-02-10 18:54:00,
2013-02-10 12:59:00,49.5,44.2,30.06,SSE,155,0.0,6.0,82,0.05,,---,0.05,VWS V14.00,2013-02-10 18:59:00,
2013-02-10 13:04:00,49.2,44.6,30.05,SSW,205,4.0,6.0,84,0.07,,---,0.07,VWS V14.00,2013-02-10 19:04:00,
2013-02-10 13:09:00,48.9,44.6,30.05,South,180,7.0,9.0,85,0.08,,---,0.08,VWS V14.00,2013-02-10 19:09:00,
2013-02-10 13:14:00,48.8,44.8,30.04,SSW,194,8.0,11.0,86,0.09,,---,0.09,VWS V14.00,2013-02-10 19:14:00,
2013-02-10 13:19:00,48.7,45.0,30.02,SSW,194,6.0,12.0,87,0.10,,---,0.10,VWS V14.00,2013-02-10 19:19:00,
2013-02-10 13:24:00,48.6,44.9,30.03,SSE,168,6.0,13.0,87,0.10,,---,0.10,VWS V14.00,2013-02-10 19:24:00,
2013-02-10 13:29:00,48.5,45.4,30.03,South,177,6.0,8.0,89,0.08,,---,0.11,VWS V14.00,2013-02-10 19:29:00,
2013-02-10 13:34:00,48.3,45.2,30.03,South,181,6.0,10.0,89,0.10,,---,0.13,VWS V14.00,2013-02-10 19:34:00,
2013-02-10 13:39:00,48.2,45.4,30.03,South,177,0.0,10.0,90,0.10,,---,0.13,VWS V14.00,2013-02-10 19:39:00,
2013-02-10 13:44:00,48.1,45.6,30.02,South,173,7.0,11.0,91,0.11,,---,0.14,VWS V14.00,2013-02-10 19:44:00,
2013-02-10 13:49:00,48.2,45.7,30.02,South,178,8.0,11.0,91,0.13,,---,0.16,VWS V14.00,2013-02-10 19:49:00,
2013-02-10 13:54:00,48.2,45.7,30.03,South,177,4.0,11.0,91,0.13,,---,0.16,VWS V14.00,2013-02-10 19:54:00,
2013-02-10 13:59:00,48.2,45.7,30.03,South,183,5.0,5.0,91,0.12,,---,0.17,VWS V14.00,2013-02-10 19:59:00,
2013-02-10 14:04:00,48.1,45.9,30.03,South,173,5.0,6.0,92,0.12,,---,0.17,VWS V14.00,2013-02-10 20:04:00,
2013-02-10 14:09:00,48.1,45.9,30.03,South,173,0.0,6.0,92,0.13,,---,0.18,VWS V14.00,2013-02-10 20:09:00,
2013-02-10 14:14:00,48.1,45.9,30.03,South,175,1.0,6.0,92,0.14,,---,0.19,VWS V14.00,2013-02-10 20:14:00,
2013-02-10 14:19:00,48.0,46.1,30.03,SSW,192,3.0,6.0,93,0.16,,---,0.21,VWS V14.00,2013-02-10 20:19:00,
2013-02-10 14:24:00,47.9,46.0,30.04,SSW,199,4.0,6.0,93,0.18,,---,0.23,VWS V14.00,2013-02-10 20:24:00,
2013-02-10 14:29:00,47.9,46.0,30.04,South,188,6.0,7.0,93,0.13,,---,0.24,VWS V14.00,2013-02-10 20:29:00,
2013-02-10 14:34:00,47.9,46.3,30.06,SSW,204,4.0,8.0,94,0.15,,---,0.26,VWS V14.00,2013-02-10 20:34:00,
2013-02-10 14:39:00,47.8,46.2,30.05,SSE,164,4.0,8.0,94,0.18,,---,0.29,VWS V14.00,2013-02-10 20:39:00,
2013-02-10 14:44:00,47.7,46.1,30.04,South,179,8.0,8.0,94,0.21,,---,0.32,VWS V14.00,2013-02-10 20:44:00,
2013-02-10 14:49:00,47.7,46.1,30.05,SSW,194,4.0,9.0,94,0.24,,---,0.35,VWS V14.00,2013-02-10 20:49:00,
2013-02-10 14:54:00,47.7,46.3,30.05,South,170,6.0,9.0,95,0.28,,---,0.39,VWS V14.00,2013-02-10 20:54:00,
2013-02-10 14:59:00,47.7,46.3,30.05,SSW,193,5.0,6.0,95,0.25,,---,0.42,VWS V14.00,2013-02-10 20:59:00,
2013-02-10 15:04:00,47.7,46.3,30.05,SSE,163,8.0,8.0,95,0.28,,---,0.45,VWS V14.00,2013-02-10 21:04:00,
2013-02-10 15:09:00,47.6,46.2,30.05,South,186,5.0,8.0,95,0.31,,---,0.48,VWS V14.00,2013-02-10 21:09:00,
2013-02-10 15:14:00,47.6,46.5,30.04,South,188,5.0,8.0,96,0.34,,---,0.51,VWS V14.00,2013-02-10 21:14:00,
2013-02-10 15:19:00,47.6,46.5,30.04,SSE,158,4.0,8.0,96,0.37,,---,0.54,VWS V14.00,2013-02-10 21:19:00,
2013-02-10 15:24:00,47.6,46.5,30.04,SSE,166,0.0,8.0,96,0.39,,---,0.56,VWS V14.00,2013-02-10 21:24:00,
2013-02-10 15:29:00,47.7,46.6,30.03,SSE,166,1.0,7.0,96,0.33,,---,0.57,VWS V14.00,2013-02-10 21:29:00,
2013-02-10 15:34:00,47.8,46.7,30.03,South,170,6.0,9.0,96,0.34,,---,0.58,VWS V14.00,2013-02-10 21:34:00,
2013-02-10 15:39:00,47.9,46.8,30.04,South,191,4.0,9.0,96,0.35,,---,0.59,VWS V14.00,2013-02-10 21:39:00,
2013-02-10 15:44:00,48.0,46.9,30.03,SSE,165,1.0,9.0,96,0.35,,---,0.59,VWS V14.00,2013-02-10 21:44:00,
2013-02-10 15:49:00,48.2,47.4,30.04,South,180,4.0,9.0,97,0.36,,---,0.60,VWS V14.00,2013-02-10 21:49:00,
2013-02-10 15:54:00,48.3,47.5,30.05,SSW,213,0.0,9.0,97,0.36,,---,0.60,VWS V14.00,2013-02-10 21:54:00,
2013-02-10 15:59:00,48.5,47.4,30.05,SSE,167,7.0,8.0,96,0.18,,---,0.60,VWS V14.00,2013-02-10 21:59:00,
2013-02-10 16:04:00,48.6,47.5,30.02,SE,139,6.0,11.0,96,0.18,,---,0.60,VWS V14.00,2013-02-10 22:04:00,
2013-02-10 16:09:00,48.7,47.6,29.96,SE,140,10.0,18.0,96,0.18,,---,0.60,VWS V14.00,2013-02-10 22:09:00,
2013-02-10 16:14:00,48.7,47.6,29.97,South,179,9.0,18.0,96,0.18,,---,0.60,VWS V14.00,2013-02-10 22:14:00,
2013-02-10 16:19:00,49.0,47.9,29.98,South,175,2.0,18.0,96,0.18,,---,0.60,VWS V14.00,2013-02-10 22:19:00,
2013-02-10 16:24:00,49.2,48.1,29.98,South,171,11.0,18.0,96,0.18,,---,0.60,VWS V14.00,2013-02-10 22:24:00,
2013-02-10 16:29:00,49.8,48.7,29.99,SSW,192,12.0,13.0,96,0.03,,---,0.60,VWS V14.00,2013-02-10 22:29:00,
2013-02-10 16:34:00,50.2,48.8,29.97,SSE,155,5.0,15.0,95,0.03,,---,0.60,VWS V14.00,2013-02-10 22:34:00,
2013-02-10 16:39:00,50.4,48.7,29.96,South,172,11.0,15.0,94,0.03,,---,0.60,VWS V14.00,2013-02-10 22:39:00,
2013-02-10 16:44:00,50.6,48.9,29.98,SSE,168,12.0,18.0,94,0.03,,---,0.60,VWS V14.00,2013-02-10 22:44:00,
2013-02-10 16:49:00,50.9,49.2,29.97,South,183,10.0,18.0,94,0.03,,---,0.60,VWS V14.00,2013-02-10 22:49:00,
2013-02-10 16:54:00,51.1,49.2,29.96,South,173,13.0,18.0,93,0.03,,---,0.60,VWS V14.00,2013-02-10 22:54:00,
2013-02-10 16:59:00,51.3,49.3,29.98,South,184,7.0,8.0,93,0.00,,---,0.60,VWS V14.00,2013-02-10 22:59:00,
2013-02-10 17:04:00,51.6,49.7,29.98,SSW,196,8.0,15.0,93,0.00,,---,0.60,VWS V14.00,2013-02-10 23:04:00,
2013-02-10 17:09:00,51.7,49.5,29.98,South,182,9.0,15.0,92,0.00,,---,0.60,VWS V14.00,2013-02-10 23:09:00,
2013-02-10 17:14:00,51.9,49.9,29.98,South,187,10.0,15.0,93,0.00,,---,0.60,VWS V14.00,2013-02-10 23:14:00,
2013-02-10 17:19:00,52.0,49.8,29.98,SSE,168,6.0,15.0,92,0.00,,---,0.60,VWS V14.00,2013-02-10 23:19:00,
2013-02-10 17:24:00,52.0,50.0,29.99,South,188,9.0,15.0,93,0.00,,---,0.60,VWS V14.00,2013-02-10 23:24:00,
2013-02-10 17:29:00,52.3,50.0,30.00,South,182,13.0,13.0,92,0.00,,---,0.60,VWS V14.00,2013-02-10 23:29:00,
2013-02-10 17:34:00,52.7,50.5,30.00,SSW,209,4.0,13.0,92,0.00,,---,0.60,VWS V14.00,2013-02-10 23:34:00,
2013-02-10 17:39:00,52.9,50.6,30.01,South,186,13.0,19.0,92,0.00,,---,0.60,VWS V14.00,2013-02-10 23:39:00,
2013-02-10 17:44:00,53.3,50.7,30.01,South,190,8.0,19.0,91,0.00,,---,0.60,VWS V14.00,2013-02-10 23:44:00,
2013-02-10 17:49:00,53.4,50.8,30.02,South,182,9.0,19.0,91,0.00,,---,0.60,VWS V14.00,2013-02-10 23:49:00,
2013-02-10 17:54:00,53.4,50.5,30.01,SSE,159,10.0,19.0,90,0.00,,---,0.60,VWS V14.00,2013-02-10 23:54:00,
2013-02-10 17:59:00,53.4,50.8,30.00,South,170,7.0,12.0,91,0.00,,---,0.60,VWS V14.00,2013-02-10 23:59:00,
2013-02-10 18:04:00,53.4,50.8,29.98,SSW,200,6.0,13.0,91,0.00,,---,0.60,VWS V14.00,2013-02-11 00:04:00,
2013-02-10 18:09:00,53.3,50.7,29.97,SSE,155,9.0,17.0,91,0.00,,---,0.60,VWS V14.00,2013-02-11 00:09:00,
2013-02-10 18:14:00,53.3,50.7,30.00,South,182,10.0,17.0,91,0.00,,---,0.60,VWS V14.00,2013-02-11 00:14:00,
2013-02-10 18:19:00,53.5,50.9,29.99,SSW,197,5.0,17.0,91,0.00,,---,0.60,VWS V14.00,2013-02-11 00:19:00,
2013-02-10 18:24:00,53.5,50.9,29.98,SE,143,10.0,17.0,91,0.00,,---,0.60,VWS V14.00,2013-02-11 00:24:00,
2013-02-10 18:29:00,53.6,51.0,29.98,South,175,6.0,7.0,91,0.00,,---,0.60,VWS V14.00,2013-02-11 00:29:00,
2013-02-10 18:34:00,53.7,51.1,29.98,South,187,5.0,14.0,91,0.00,,---,0.60,VWS V14.00,2013-02-11 00:34:00,
2013-02-10 18:39:00,53.8,51.2,29.97,South,173,4.0,17.0,91,0.00,,---,0.60,VWS V14.00,2013-02-11 00:39:00,
2013-02-10 18:44:00,53.9,51.3,29.97,SSE,167,13.0,18.0,91,0.00,,---,0.60,VWS V14.00,2013-02-11 00:44:00,
2013-02-10 18:49:00,54.2,51.3,29.98,SSW,192,8.0,18.0,90,0.00,,---,0.60,VWS V14.00,2013-02-11 00:49:00,
2013-02-10 18:54:00,54.2,51.3,29.97,SSE,159,7.0,18.0,90,0.00,,---,0.60,VWS V14.00,2013-02-11 00:54:00,
2013-02-10 18:59:00,54.2,51.3,29.97,South,175,8.0,10.0,90,0.00,,---,0.60,VWS V14.00,2013-02-11 00:59:00,
2013-02-10 19:04:00,54.2,51.6,29.96,SSE,163,8.0,13.0,91,0.00,,---,0.60,VWS V14.00,2013-02-11 01:04:00,
2013-02-10 19:09:00,54.2,51.6,29.97,South,170,7.0,13.0,91,0.00,,---,0.60,VWS V14.00,2013-02-11 01:09:00,
2013-02-10 19:14:00,54.1,51.5,29.97,South,172,6.0,13.0,91,0.00,,---,0.60,VWS V14.00,2013-02-11 01:14:00,
2013-02-10 19:19:00,54.1,51.8,29.97,SSE,166,8.0,13.0,92,0.00,,---,0.60,VWS V14.00,2013-02-11 01:19:00,
2013-02-10 19:24:00,54.3,52.0,29.97,South,190,10.0,15.0,92,0.00,,---,0.60,VWS V14.00,2013-02-11 01:24:00,
2013-02-10 19:29:00,54.4,51.8,29.98,South,183,8.0,10.0,91,0.00,,---,0.60,VWS V14.00,2013-02-11 01:29:00,
2013-02-10 19:34:00,54.5,51.9,29.98,South,190,5.0,12.0,91,0.00,,---,0.60,VWS V14.00,2013-02-11 01:34:00,
2013-02-10 19:39:00,54.6,52.0,29.98,South,174,7.0,12.0,91,0.00,,---,0.60,VWS V14.00,2013-02-11 01:39:00,
2013-02-10 19:44:00,54.8,52.2,29.98,South,183,4.0,16.0,91,0.00,,---,0.60,VWS V14.00,2013-02-11 01:44:00,
2013-02-10 19:49:00,54.8,52.2,29.98,South,186,6.0,16.0,91,0.00,,---,0.60,VWS V14.00,2013-02-11 01:49:00,
2013-02-10 19:54:00,54.8,52.2,29.98,South,180,0.0,16.0,91,0.00,,---,0.60,VWS V14.00,2013-02-11 01:54:00,
2013-02-10 19:59:00,54.8,52.2,29.97,South,180,6.0,9.0,91,0.00,,---,0.60,VWS V14.00,2013-02-11 01:59:00,
2013-02-10 20:04:00,54.9,52.3,29.97,South,169,5.0,14.0,91,0.00,,---,0.60,VWS V14.00,2013-02-11 02:04:00,
2013-02-10 20:09:00,55.0,52.4,29.96,South,170,7.0,14.0,91,0.00,,---,0.60,VWS V14.00,2013-02-11 02:09:00,
2013-02-10 20:14:00,55.0,52.4,29.96,South,182,7.0,14.0,91,0.00,,---,0.60,VWS V14.00,2013-02-11 02:14:00,
2013-02-10 20:19:00,55.0,52.4,29.96,South,190,4.0,14.0,91,0.00,,---,0.60,VWS V14.00,2013-02-11 02:19:00,
2013-02-10 20:24:00,55.2,52.6,29.95,South,181,12.0,14.0,91,0.00,,---,0.60,VWS V14.00,2013-02-11 02:24:00,
2013-02-10 20:29:00,55.3,52.7,29.96,SSW,208,0.0,4.0,91,0.00,,---,0.60,VWS V14.00,2013-02-11 02:29:00,
2013-02-10 20:34:00,55.6,53.0,29.96,South,181,6.0,16.0,91,0.00,,---,0.60,VWS V14.00,2013-02-11 02:34:00,
2013-02-10 20:39:00,55.8,53.2,29.96,SW,217,8.0,16.0,91,0.00,,---,0.60,VWS V14.00,2013-02-11 02:39:00,
2013-02-10 20:44:00,55.9,53.0,29.95,SSE,167,9.0,16.0,90,0.00,,---,0.60,VWS V14.00,2013-02-11 02:44:00,
2013-02-10 20:49:00,56.0,53.1,29.96,South,187,7.0,16.0,90,0.00,,---,0.60,VWS V14.00,2013-02-11 02:49:00,
2013-02-10 20:54:00,56.0,53.1,29.96,South,173,7.0,16.0,90,0.00,,---,0.60,VWS V14.00,2013-02-11 02:54:00,
2013-02-10 20:59:00,56.2,53.3,29.96,SSE,161,6.0,7.0,90,0.00,,---,0.60,VWS V14.00,2013-02-11 02:59:00,
2013-02-10 21:04:00,56.2,53.3,29.97,WSW,242,4.0,13.0,90,0.00,,---,0.60,VWS V14.00,2013-02-11 03:04:00,
2013-02-10 21:09:00,56.3,53.4,29.97,South,175,10.0,15.0,90,0.00,,---,0.60,VWS V14.00,2013-02-11 03:09:00,
2013-02-10 21:14:00,56.4,53.5,29.97,South,184,3.0,15.0,90,0.00,,---,0.60,VWS V14.00,2013-02-11 03:14:00,
2013-02-10 21:19:00,56.3,53.4,29.97,SSE,150,5.0,15.0,90,0.00,,---,0.60,VWS V14.00,2013-02-11 03:19:00,
2013-02-10 21:24:00,56.4,53.5,29.97,SSE,156,4.0,15.0,90,0.00,,---,0.60,VWS V14.00,2013-02-11 03:24:00,
2013-02-10 21:29:00,56.4,53.5,29.97,South,172,7.0,7.0,90,0.00,,---,0.60,VWS V14.00,2013-02-11 03:29:00,
2013-02-10 21:34:00,56.4,53.5,29.97,South,184,2.0,7.0,90,0.00,,---,0.60,VWS V14.00,2013-02-11 03:34:00,
2013-02-10 21:39:00,56.4,53.5,29.98,SSW,202,2.0,11.0,90,0.00,,---,0.60,VWS V14.00,2013-02-11 03:39:00,
2013-02-10 21:44:00,56.5,53.6,29.97,South,170,5.0,6.0,90,0.00,,---,0.60,VWS V14.00,2013-02-11 03:44:00,
2013-02-10 21:49:00,56.6,53.7,29.97,South,178,0.0,7.0,90,0.00,,---,0.60,VWS V14.00,2013-02-11 03:49:00,
2013-02-10 21:54:00,56.6,53.7,29.96,SW,233,2.0,8.0,90,0.00,,---,0.60,VWS V14.00,2013-02-11 03:54:00,
2013-02-10 21:59:00,56.7,53.8,29.97,SSE,166,1.0,4.0,90,0.00,,---,0.60,VWS V14.00,2013-02-11 03:59:00,
2013-02-10 22:04:00,56.9,54.0,29.97,SSE,168,0.0,9.0,90,0.00,,---,0.60,VWS V14.00,2013-02-11 04:04:00,
2013-02-10 22:09:00,57.0,54.1,29.97,South,188,4.0,10.0,90,0.00,,---,0.60,VWS V14.00,2013-02-11 04:09:00,
2013-02-10 22:14:00,57.2,54.3,29.97,SSW,194,3.0,10.0,90,0.00,,---,0.60,VWS V14.00,2013-02-11 04:14:00,
2013-02-10 22:19:00,57.3,54.1,29.97,SSW,200,4.0,10.0,89,0.00,,---,0.60,VWS V14.00,2013-02-11 04:19:00,
2013-02-10 22:24:00,57.3,54.1,29.97,SSW,194,3.0,10.0,89,0.00,,---,0.60,VWS V14.00,2013-02-11 04:24:00,
2013-02-10 22:29:00,57.2,54.3,29.97,SSW,194,4.0,6.0,90,0.00,,---,0.60,VWS V14.00,2013-02-11 04:29:00,
2013-02-10 22:34:00,57.1,54.5,29.97,South,186,7.0,12.0,91,0.00,,---,0.60,VWS V14.00,2013-02-11 04:34:00,
2013-02-10 22:39:00,56.9,54.3,29.97,South,190,4.0,12.0,91,0.00,,---,0.60,VWS V14.00,2013-02-11 04:39:00,
2013-02-10 22:44:00,56.8,54.5,29.97,SSW,200,8.0,12.0,92,0.00,,---,0.60,VWS V14.00,2013-02-11 04:44:00,
2013-02-10 22:49:00,56.8,54.5,29.97,South,182,7.0,12.0,92,0.00,,---,0.60,VWS V14.00,2013-02-11 04:49:00,
2013-02-10 22:54:00,56.9,54.6,29.97,South,190,5.0,13.0,92,0.00,,---,0.60,VWS V14.00,2013-02-11 04:54:00,
2013-02-10 22:59:00,56.9,54.6,29.97,South,176,7.0,7.0,92,0.00,,---,0.60,VWS V14.00,2013-02-11 04:59:00,
2013-02-10 23:00:00,56.9,54.6,29.97,South,185,6.0,7.0,92,0.00,,---,0.60,VWS V14.00,2013-02-11 05:00:00,
2013-02-10 23:05:00,56.9,54.6,29.97,SSE,167,9.0,9.0,92,0.00,,---,0.60,VWS V14.00,2013-02-11 05:05:00,
2013-02-10 23:10:00,56.9,54.6,29.97,South,191,4.0,9.0,92,0.00,,---,0.60,VWS V14.00,2013-02-11 05:10:00,
2013-02-10 23:15:00,56.9,54.6,29.98,SSW,194,3.0,9.0,92,0.00,,---,0.60,VWS V14.00,2013-02-11 05:15:00,
2013-02-10 23:20:00,56.9,54.6,29.98,SSW,201,3.0,9.0,92,0.00,,---,0.60,VWS V14.00,2013-02-11 05:20:00,
2013-02-10 23:25:00,56.7,54.4,29.97,SSW,201,0.0,9.0,92,0.00,,---,0.60,VWS V14.00,2013-02-11 05:25:00,
2013-02-10 23:30:00,56.6,54.6,29.98,SSW,198,2.0,5.0,93,0.00,,---,0.60,VWS V14.00,2013-02-11 05:30:00,
2013-02-10 23:35:00,56.6,54.6,29.97,SSE,148,4.0,6.0,93,0.00,,---,0.60,VWS V14.00,2013-02-11 05:35:00,
2013-02-10 23:40:00,56.6,54.6,29.98,SSW,200,4.0,6.0,93,0.00,,---,0.60,VWS V14.00,2013-02-11 05:40:00,
2013-02-10 23:45:00,56.5,54.8,29.97,South,184,3.0,6.0,94,0.00,,---,0.60,VWS V14.00,2013-02-11 05:45:00,
2013-02-10 23:50:00,56.4,54.7,29.98,South,185,0.0,6.0,94,0.00,,---,0.60,VWS V14.00,2013-02-11 05:50:00,
2013-02-10 23:55:00,56.4,54.7,29.98,South,185,2.0,6.0,94,0.00,,---,0.60,VWS V14.00,2013-02-11 05:55:00,